sensor_id;sensor_type;location;lat;lon;timestamp;pressure;altitude;pressure_sealevel;temperature
11321;BMP180;5715;48.234;14.320;2023-02-21T00:02:42;98846.00;;;14.10
11321;BMP180;5715;48.234;14.320;2023-02-21T00:05:48;98842.00;;;14.10
11321;BMP180;5715;48.234;14.320;2023-02-21T00:08:55;98841.00;;;14.00
11321;BMP180;5715;48.234;14.320;2023-02-21T00:12:01;98827.00;;;14.00
11321;BMP180;5715;48.234;14.320;2023-02-21T00:15:08;98826.00;;;14.00
11321;BMP180;5715;48.234;14.320;2023-02-21T00:18:15;98833.00;;;14.10
11321;BMP180;5715;48.234;14.320;2023-02-21T00:21:23;98831.00;;;14.10
11321;BMP180;5715;48.234;14.320;2023-02-21T00:24:32;98825.00;;;14.10
11321;BMP180;5715;48.234;14.320;2023-02-21T00:27:38;98826.00;;;14.00
11321;BMP180;5715;48.234;14.320;2023-02-21T00:30:45;98826.00;;;14.00
11321;BMP180;5715;48.234;14.320;2023-02-21T00:33:51;98819.00;;;14.00
11321;BMP180;5715;48.234;14.320;2023-02-21T00:36:58;98817.00;;;14.00
11321;BMP180;5715;48.234;14.320;2023-02-21T00:40:05;98822.00;;;13.80
11321;BMP180;5715;48.234;14.320;2023-02-21T00:43:11;98827.00;;;13.80
11321;BMP180;5715;48.234;14.320;2023-02-21T00:46:18;98831.00;;;13.70
11321;BMP180;5715;48.234;14.320;2023-02-21T00:49:24;98827.00;;;13.70
11321;BMP180;5715;48.234;14.320;2023-02-21T00:52:30;98829.00;;;13.70
11321;BMP180;5715;48.234;14.320;2023-02-21T00:55:36;98828.00;;;13.70
11321;BMP180;5715;48.234;14.320;2023-02-21T00:58:45;98833.00;;;13.70
11321;BMP180;5715;48.234;14.320;2023-02-21T01:01:52;98832.00;;;13.70
11321;BMP180;5715;48.234;14.320;2023-02-21T01:04:58;98830.00;;;13.80
11321;BMP180;5715;48.234;14.320;2023-02-21T01:08:04;98834.00;;;13.70
11321;BMP180;5715;48.234;14.320;2023-02-21T01:11:20;98831.00;;;13.70
11321;BMP180;5715;48.234;14.320;2023-02-21T01:14:26;98827.00;;;13.70
11321;BMP180;5715;48.234;14.320;2023-02-21T01:17:32;98830.00;;;13.70
11321;BMP180;5715;48.234;14.320;2023-02-21T01:20:39;98827.00;;;13.60
11321;BMP180;5715;48.234;14.320;2023-02-21T01:23:45;98822.00;;;13.60
11321;BMP180;5715;48.234;14.320;2023-02-21T01:26:51;98832.00;;;13.40
11321;BMP180;5715;48.234;14.320;2023-02-21T01:29:57;98823.00;;;13.50
11321;BMP180;5715;48.234;14.320;2023-02-21T01:33:04;98826.00;;;13.40
11321;BMP180;5715;48.234;14.320;2023-02-21T01:36:11;98823.00;;;13.50
11321;BMP180;5715;48.234;14.320;2023-02-21T01:39:17;98818.00;;;13.50
11321;BMP180;5715;48.234;14.320;2023-02-21T01:42:23;98818.00;;;13.60
11321;BMP180;5715;48.234;14.320;2023-02-21T01:45:49;98817.00;;;13.60
11321;BMP180;5715;48.234;14.320;2023-02-21T01:48:59;98810.00;;;13.90
11321;BMP180;5715;48.234;14.320;2023-02-21T01:52:05;98815.00;;;13.90
11321;BMP180;5715;48.234;14.320;2023-02-21T01:55:12;98814.00;;;13.90
11321;BMP180;5715;48.234;14.320;2023-02-21T01:58:22;98808.00;;;13.90
11321;BMP180;5715;48.234;14.320;2023-02-21T02:01:41;98812.00;;;13.90
11321;BMP180;5715;48.234;14.320;2023-02-21T02:04:51;98812.00;;;13.80
11321;BMP180;5715;48.234;14.320;2023-02-21T02:07:59;98815.00;;;13.80
11321;BMP180;5715;48.234;14.320;2023-02-21T02:15:11;98810.00;;;13.70
11321;BMP180;5715;48.234;14.320;2023-02-21T02:18:26;98816.00;;;13.70
11321;BMP180;5715;48.234;14.320;2023-02-21T02:25:09;98812.00;;;13.60
11321;BMP180;5715;48.234;14.320;2023-02-21T02:28:16;98809.00;;;13.50
11321;BMP180;5715;48.234;14.320;2023-02-21T02:40:50;98810.00;;;13.00
11321;BMP180;5715;48.234;14.320;2023-02-21T02:43:57;98807.00;;;12.80
11321;BMP180;5715;48.234;14.320;2023-02-21T02:46:49;98809.00;;;12.60
11321;BMP180;5715;48.234;14.320;2023-02-21T02:49:42;98800.00;;;12.40
11321;BMP180;5715;48.234;14.320;2023-02-21T02:52:31;98805.00;;;12.40
11321;BMP180;5715;48.234;14.320;2023-02-21T02:58:47;98802.00;;;12.20
11321;BMP180;5715;48.234;14.320;2023-02-21T03:08:46;98809.00;;;12.20
11321;BMP180;5715;48.234;14.320;2023-02-21T03:11:46;98822.00;;;12.10
11321;BMP180;5715;48.234;14.320;2023-02-21T03:14:46;98817.00;;;12.10
11321;BMP180;5715;48.234;14.320;2023-02-21T03:17:43;98819.00;;;12.10
11321;BMP180;5715;48.234;14.320;2023-02-21T03:20:34;98818.00;;;12.10
11321;BMP180;5715;48.234;14.320;2023-02-21T03:23:27;98819.00;;;12.20
11321;BMP180;5715;48.234;14.320;2023-02-21T03:26:17;98811.00;;;12.30
11321;BMP180;5715;48.234;14.320;2023-02-21T03:29:07;98808.00;;;12.40
11321;BMP180;5715;48.234;14.320;2023-02-21T03:32:02;98812.00;;;12.40
11321;BMP180;5715;48.234;14.320;2023-02-21T03:34:58;98814.00;;;12.40
11321;BMP180;5715;48.234;14.320;2023-02-21T03:37:52;98812.00;;;12.40
11321;BMP180;5715;48.234;14.320;2023-02-21T03:40:39;98809.00;;;12.40
11321;BMP180;5715;48.234;14.320;2023-02-21T03:43:27;98807.00;;;12.30
11321;BMP180;5715;48.234;14.320;2023-02-21T03:46:15;98821.00;;;12.30
11321;BMP180;5715;48.234;14.320;2023-02-21T03:49:02;98820.00;;;12.20
11321;BMP180;5715;48.234;14.320;2023-02-21T03:51:50;98812.00;;;12.10
11321;BMP180;5715;48.234;14.320;2023-02-21T03:54:39;98812.00;;;12.20
11321;BMP180;5715;48.234;14.320;2023-02-21T03:57:27;98809.00;;;12.10
11321;BMP180;5715;48.234;14.320;2023-02-21T04:00:15;98797.00;;;12.20
11321;BMP180;5715;48.234;14.320;2023-02-21T04:03:03;98812.00;;;12.10
11321;BMP180;5715;48.234;14.320;2023-02-21T04:05:51;98815.00;;;12.10
11321;BMP180;5715;48.234;14.320;2023-02-21T04:08:38;98806.00;;;12.10
11321;BMP180;5715;48.234;14.320;2023-02-21T04:11:26;98808.00;;;12.20
11321;BMP180;5715;48.234;14.320;2023-02-21T04:14:14;98804.00;;;12.00
11321;BMP180;5715;48.234;14.320;2023-02-21T04:17:02;98804.00;;;12.40
11321;BMP180;5715;48.234;14.320;2023-02-21T04:19:50;98814.00;;;12.30
11321;BMP180;5715;48.234;14.320;2023-02-21T04:22:37;98803.00;;;12.40
11321;BMP180;5715;48.234;14.320;2023-02-21T04:25:26;98812.00;;;12.60
11321;BMP180;5715;48.234;14.320;2023-02-21T04:28:14;98805.00;;;12.70
11321;BMP180;5715;48.234;14.320;2023-02-21T04:31:02;98805.00;;;12.70
11321;BMP180;5715;48.234;14.320;2023-02-21T04:33:49;98793.00;;;12.70
11321;BMP180;5715;48.234;14.320;2023-02-21T04:36:52;98794.00;;;12.80
11321;BMP180;5715;48.234;14.320;2023-02-21T04:39:39;98785.00;;;12.90
11321;BMP180;5715;48.234;14.320;2023-02-21T04:42:27;98792.00;;;13.00
11321;BMP180;5715;48.234;14.320;2023-02-21T04:45:15;98799.00;;;13.20
11321;BMP180;5715;48.234;14.320;2023-02-21T04:48:03;98808.00;;;13.30
11321;BMP180;5715;48.234;14.320;2023-02-21T04:50:51;98808.00;;;13.10
11321;BMP180;5715;48.234;14.320;2023-02-21T04:53:41;98800.00;;;13.10
11321;BMP180;5715;48.234;14.320;2023-02-21T04:56:29;98806.00;;;13.00
11321;BMP180;5715;48.234;14.320;2023-02-21T04:59:18;98799.00;;;13.20
11321;BMP180;5715;48.234;14.320;2023-02-21T05:02:07;98793.00;;;13.10
11321;BMP180;5715;48.234;14.320;2023-02-21T05:04:55;98782.00;;;13.10
11321;BMP180;5715;48.234;14.320;2023-02-21T05:07:43;98791.00;;;13.30
11321;BMP180;5715;48.234;14.320;2023-02-21T05:10:31;98795.00;;;13.50
11321;BMP180;5715;48.234;14.320;2023-02-21T05:13:31;98784.00;;;13.60
11321;BMP180;5715;48.234;14.320;2023-02-21T05:16:19;98784.00;;;13.70
11321;BMP180;5715;48.234;14.320;2023-02-21T05:19:07;98779.00;;;13.40
11321;BMP180;5715;48.234;14.320;2023-02-21T05:21:57;98782.00;;;13.40
11321;BMP180;5715;48.234;14.320;2023-02-21T05:24:46;98781.00;;;13.20
11321;BMP180;5715;48.234;14.320;2023-02-21T05:27:35;98782.00;;;12.80
11321;BMP180;5715;48.234;14.320;2023-02-21T05:30:23;98780.00;;;12.60
11321;BMP180;5715;48.234;14.320;2023-02-21T05:33:11;98787.00;;;12.60
11321;BMP180;5715;48.234;14.320;2023-02-21T05:35:58;98797.00;;;12.50
11321;BMP180;5715;48.234;14.320;2023-02-21T05:38:52;98793.00;;;12.60
11321;BMP180;5715;48.234;14.320;2023-02-21T05:41:47;98785.00;;;12.60
11321;BMP180;5715;48.234;14.320;2023-02-21T05:44:35;98788.00;;;12.10
11321;BMP180;5715;48.234;14.320;2023-02-21T05:47:23;98782.00;;;12.10
11321;BMP180;5715;48.234;14.320;2023-02-21T05:50:11;98786.00;;;12.20
11321;BMP180;5715;48.234;14.320;2023-02-21T05:53:00;98779.00;;;12.20
11321;BMP180;5715;48.234;14.320;2023-02-21T05:55:48;98781.00;;;12.30
11321;BMP180;5715;48.234;14.320;2023-02-21T05:58:35;98784.00;;;12.40
11321;BMP180;5715;48.234;14.320;2023-02-21T06:01:23;98778.00;;;12.60
11321;BMP180;5715;48.234;14.320;2023-02-21T06:04:11;98792.00;;;12.80
11321;BMP180;5715;48.234;14.320;2023-02-21T06:06:59;98795.00;;;13.10
11321;BMP180;5715;48.234;14.320;2023-02-21T06:09:46;98798.00;;;13.00
11321;BMP180;5715;48.234;14.320;2023-02-21T06:12:34;98802.00;;;12.90
11321;BMP180;5715;48.234;14.320;2023-02-21T06:15:22;98804.00;;;12.80
11321;BMP180;5715;48.234;14.320;2023-02-21T06:18:13;98815.00;;;12.80
11321;BMP180;5715;48.234;14.320;2023-02-21T06:21:01;98814.00;;;12.80
11321;BMP180;5715;48.234;14.320;2023-02-21T06:23:49;98807.00;;;12.70
11321;BMP180;5715;48.234;14.320;2023-02-21T06:26:38;98812.00;;;12.90
11321;BMP180;5715;48.234;14.320;2023-02-21T06:29:28;98817.00;;;12.80
11321;BMP180;5715;48.234;14.320;2023-02-21T06:32:16;98823.00;;;12.80
11321;BMP180;5715;48.234;14.320;2023-02-21T06:35:04;98823.00;;;12.70
11321;BMP180;5715;48.234;14.320;2023-02-21T06:37:52;98822.00;;;12.90
11321;BMP180;5715;48.234;14.320;2023-02-21T06:40:40;98830.00;;;12.90
11321;BMP180;5715;48.234;14.320;2023-02-21T06:43:27;98831.00;;;13.00
11321;BMP180;5715;48.234;14.320;2023-02-21T06:46:21;98823.00;;;13.20
11321;BMP180;5715;48.234;14.320;2023-02-21T06:49:10;98828.00;;;13.50
11321;BMP180;5715;48.234;14.320;2023-02-21T06:51:59;98839.00;;;13.50
11321;BMP180;5715;48.234;14.320;2023-02-21T06:54:50;98841.00;;;14.20
11321;BMP180;5715;48.234;14.320;2023-02-21T06:57:37;98842.00;;;14.40
11321;BMP180;5715;48.234;14.320;2023-02-21T07:00:25;98846.00;;;14.20
11321;BMP180;5715;48.234;14.320;2023-02-21T07:03:15;98841.00;;;14.50
11321;BMP180;5715;48.234;14.320;2023-02-21T07:06:03;98843.00;;;14.50
11321;BMP180;5715;48.234;14.320;2023-02-21T07:08:51;98843.00;;;14.70
11321;BMP180;5715;48.234;14.320;2023-02-21T07:11:40;98842.00;;;14.70
11321;BMP180;5715;48.234;14.320;2023-02-21T07:14:28;98855.00;;;14.90
11321;BMP180;5715;48.234;14.320;2023-02-21T07:17:15;98849.00;;;15.00
11321;BMP180;5715;48.234;14.320;2023-02-21T07:20:03;98846.00;;;15.10
11321;BMP180;5715;48.234;14.320;2023-02-21T07:22:51;98847.00;;;15.10
11321;BMP180;5715;48.234;14.320;2023-02-21T07:25:39;98843.00;;;15.20
11321;BMP180;5715;48.234;14.320;2023-02-21T07:28:26;98848.00;;;15.40
11321;BMP180;5715;48.234;14.320;2023-02-21T07:31:14;98841.00;;;15.40
11321;BMP180;5715;48.234;14.320;2023-02-21T07:34:05;98843.00;;;15.50
11321;BMP180;5715;48.234;14.320;2023-02-21T07:36:53;98847.00;;;15.60
11321;BMP180;5715;48.234;14.320;2023-02-21T07:39:41;98846.00;;;15.50
11321;BMP180;5715;48.234;14.320;2023-02-21T07:42:28;98844.00;;;15.80
11321;BMP180;5715;48.234;14.320;2023-02-21T07:45:17;98838.00;;;15.80
11321;BMP180;5715;48.234;14.320;2023-02-21T07:48:05;98854.00;;;16.00
11321;BMP180;5715;48.234;14.320;2023-02-21T07:50:52;98847.00;;;15.90
11321;BMP180;5715;48.234;14.320;2023-02-21T07:53:40;98851.00;;;16.00
11321;BMP180;5715;48.234;14.320;2023-02-21T07:56:28;98851.00;;;16.20
11321;BMP180;5715;48.234;14.320;2023-02-21T07:59:15;98850.00;;;16.20
11321;BMP180;5715;48.234;14.320;2023-02-21T08:02:04;98856.00;;;16.20
11321;BMP180;5715;48.234;14.320;2023-02-21T08:04:52;98852.00;;;16.60
11321;BMP180;5715;48.234;14.320;2023-02-21T08:07:40;98861.00;;;16.70
11321;BMP180;5715;48.234;14.320;2023-02-21T08:10:27;98875.00;;;16.90
11321;BMP180;5715;48.234;14.320;2023-02-21T08:13:16;98872.00;;;17.10
11321;BMP180;5715;48.234;14.320;2023-02-21T08:16:04;98871.00;;;17.10
11321;BMP180;5715;48.234;14.320;2023-02-21T08:18:51;98867.00;;;17.10
11321;BMP180;5715;48.234;14.320;2023-02-21T08:21:45;98867.00;;;17.30
11321;BMP180;5715;48.234;14.320;2023-02-21T08:24:33;98873.00;;;17.10
11321;BMP180;5715;48.234;14.320;2023-02-21T08:27:20;98873.00;;;17.30
11321;BMP180;5715;48.234;14.320;2023-02-21T08:30:12;98874.00;;;17.40
11321;BMP180;5715;48.234;14.320;2023-02-21T08:33:01;98873.00;;;17.30
11321;BMP180;5715;48.234;14.320;2023-02-21T08:35:48;98875.00;;;17.90
11321;BMP180;5715;48.234;14.320;2023-02-21T08:38:37;98866.00;;;17.30
11321;BMP180;5715;48.234;14.320;2023-02-21T08:41:42;98874.00;;;17.90
11321;BMP180;5715;48.234;14.320;2023-02-21T08:44:30;98873.00;;;17.50
11321;BMP180;5715;48.234;14.320;2023-02-21T08:47:18;98879.00;;;17.60
11321;BMP180;5715;48.234;14.320;2023-02-21T08:50:06;98882.00;;;18.00
11321;BMP180;5715;48.234;14.320;2023-02-21T08:52:55;98876.00;;;18.00
11321;BMP180;5715;48.234;14.320;2023-02-21T08:55:42;98878.00;;;18.20
11321;BMP180;5715;48.234;14.320;2023-02-21T08:58:30;98888.00;;;18.30
11321;BMP180;5715;48.234;14.320;2023-02-21T09:01:18;98889.00;;;18.60
11321;BMP180;5715;48.234;14.320;2023-02-21T09:04:06;98890.00;;;18.50
11321;BMP180;5715;48.234;14.320;2023-02-21T09:06:54;98884.00;;;18.40
11321;BMP180;5715;48.234;14.320;2023-02-21T09:09:43;98886.00;;;18.80
11321;BMP180;5715;48.234;14.320;2023-02-21T09:12:30;98886.00;;;18.80
11321;BMP180;5715;48.234;14.320;2023-02-21T09:15:18;98879.00;;;18.80
11321;BMP180;5715;48.234;14.320;2023-02-21T09:18:06;98873.00;;;19.00
11321;BMP180;5715;48.234;14.320;2023-02-21T09:20:54;98882.00;;;18.80
11321;BMP180;5715;48.234;14.320;2023-02-21T09:23:43;98883.00;;;18.90
11321;BMP180;5715;48.234;14.320;2023-02-21T09:26:31;98878.00;;;19.20
11321;BMP180;5715;48.234;14.320;2023-02-21T09:29:21;98874.00;;;19.30
11321;BMP180;5715;48.234;14.320;2023-02-21T09:32:09;98870.00;;;19.20
11321;BMP180;5715;48.234;14.320;2023-02-21T09:34:57;98870.00;;;19.00
11321;BMP180;5715;48.234;14.320;2023-02-21T09:37:46;98855.00;;;19.00
11321;BMP180;5715;48.234;14.320;2023-02-21T09:40:48;98854.00;;;18.90
11321;BMP180;5715;48.234;14.320;2023-02-21T09:43:43;98844.00;;;19.40
11321;BMP180;5715;48.234;14.320;2023-02-21T09:46:40;98841.00;;;20.00
11321;BMP180;5715;48.234;14.320;2023-02-21T09:49:40;98838.00;;;19.60
11321;BMP180;5715;48.234;14.320;2023-02-21T09:52:39;98843.00;;;20.30
11321;BMP180;5715;48.234;14.320;2023-02-21T09:55:35;98826.00;;;20.10
11321;BMP180;5715;48.234;14.320;2023-02-21T09:58:25;98837.00;;;20.00
11321;BMP180;5715;48.234;14.320;2023-02-21T10:07:30;98834.00;;;20.00
11321;BMP180;5715;48.234;14.320;2023-02-21T10:10:37;98847.00;;;20.70
11321;BMP180;5715;48.234;14.320;2023-02-21T10:13:50;98837.00;;;20.90
11321;BMP180;5715;48.234;14.320;2023-02-21T10:17:21;98839.00;;;20.90
11321;BMP180;5715;48.234;14.320;2023-02-21T10:20:31;98856.00;;;20.60
11321;BMP180;5715;48.234;14.320;2023-02-21T10:23:49;98856.00;;;21.30
11321;BMP180;5715;48.234;14.320;2023-02-21T10:26:38;98854.00;;;21.30
11321;BMP180;5715;48.234;14.320;2023-02-21T10:30:06;98857.00;;;21.30
11321;BMP180;5715;48.234;14.320;2023-02-21T10:32:56;98857.00;;;21.50
11321;BMP180;5715;48.234;14.320;2023-02-21T10:35:44;98846.00;;;21.70
11321;BMP180;5715;48.234;14.320;2023-02-21T10:38:32;98857.00;;;21.70
11321;BMP180;5715;48.234;14.320;2023-02-21T10:41:21;98854.00;;;21.10
11321;BMP180;5715;48.234;14.320;2023-02-21T10:44:20;98852.00;;;21.20
11321;BMP180;5715;48.234;14.320;2023-02-21T10:47:28;98852.00;;;20.90
11321;BMP180;5715;48.234;14.320;2023-02-21T10:50:40;98846.00;;;21.20
11321;BMP180;5715;48.234;14.320;2023-02-21T10:53:40;98842.00;;;21.20
11321;BMP180;5715;48.234;14.320;2023-02-21T10:56:29;98846.00;;;21.00
11321;BMP180;5715;48.234;14.320;2023-02-21T10:59:30;98837.00;;;21.20
11321;BMP180;5715;48.234;14.320;2023-02-21T11:02:35;98843.00;;;21.50
11321;BMP180;5715;48.234;14.320;2023-02-21T11:05:28;98831.00;;;21.40
11321;BMP180;5715;48.234;14.320;2023-02-21T11:08:42;98842.00;;;21.70
11321;BMP180;5715;48.234;14.320;2023-02-21T11:11:34;98835.00;;;21.90
11321;BMP180;5715;48.234;14.320;2023-02-21T11:14:25;98826.00;;;21.60
11321;BMP180;5715;48.234;14.320;2023-02-21T11:17:36;98817.00;;;21.90
11321;BMP180;5715;48.234;14.320;2023-02-21T11:20:26;98815.00;;;21.80
11321;BMP180;5715;48.234;14.320;2023-02-21T11:26:13;98810.00;;;21.60
11321;BMP180;5715;48.234;14.320;2023-02-21T11:29:14;98803.00;;;21.70
11321;BMP180;5715;48.234;14.320;2023-02-21T11:32:20;98809.00;;;22.00
11321;BMP180;5715;48.234;14.320;2023-02-21T11:38:28;98793.00;;;22.00
11321;BMP180;5715;48.234;14.320;2023-02-21T11:41:30;98793.00;;;22.10
11321;BMP180;5715;48.234;14.320;2023-02-21T11:44:40;98784.00;;;21.70
11321;BMP180;5715;48.234;14.320;2023-02-21T11:47:37;98772.00;;;21.80
11321;BMP180;5715;48.234;14.320;2023-02-21T11:50:41;98776.00;;;21.60
11321;BMP180;5715;48.234;14.320;2023-02-21T11:53:40;98771.00;;;21.60
11321;BMP180;5715;48.234;14.320;2023-02-21T11:57:04;98775.00;;;21.60
11321;BMP180;5715;48.234;14.320;2023-02-21T12:17:01;98768.00;;;21.30
11321;BMP180;5715;48.234;14.320;2023-02-21T12:23:17;98764.00;;;21.50
11321;BMP180;5715;48.234;14.320;2023-02-21T12:26:25;98742.00;;;21.60
11321;BMP180;5715;48.234;14.320;2023-02-21T12:32:28;98745.00;;;21.70
11321;BMP180;5715;48.234;14.320;2023-02-21T12:46:02;98722.00;;;21.30
11321;BMP180;5715;48.234;14.320;2023-02-21T12:49:20;98717.00;;;21.50
11321;BMP180;5715;48.234;14.320;2023-02-21T12:55:24;98695.00;;;22.00
11321;BMP180;5715;48.234;14.320;2023-02-21T12:58:35;98686.00;;;21.90
11321;BMP180;5715;48.234;14.320;2023-02-21T13:05:20;98682.00;;;21.90
11321;BMP180;5715;48.234;14.320;2023-02-21T13:08:30;98682.00;;;21.90
11321;BMP180;5715;48.234;14.320;2023-02-21T13:18:34;98674.00;;;21.70
11321;BMP180;5715;48.234;14.320;2023-02-21T13:22:04;98673.00;;;22.10
11321;BMP180;5715;48.234;14.320;2023-02-21T13:28:27;98678.00;;;22.00
11321;BMP180;5715;48.234;14.320;2023-02-21T13:31:23;98662.00;;;22.30
11321;BMP180;5715;48.234;14.320;2023-02-21T13:34:18;98674.00;;;22.00
11321;BMP180;5715;48.234;14.320;2023-02-21T13:37:31;98668.00;;;21.90
11321;BMP180;5715;48.234;14.320;2023-02-21T13:40:31;98673.00;;;21.60
11321;BMP180;5715;48.234;14.320;2023-02-21T13:43:30;98668.00;;;22.10
11321;BMP180;5715;48.234;14.320;2023-02-21T13:52:51;98655.00;;;22.10
11321;BMP180;5715;48.234;14.320;2023-02-21T14:02:26;98640.00;;;22.00
11321;BMP180;5715;48.234;14.320;2023-02-21T14:05:17;98636.00;;;21.90
11321;BMP180;5715;48.234;14.320;2023-02-21T14:08:15;98624.00;;;21.80
11321;BMP180;5715;48.234;14.320;2023-02-21T14:13:58;98610.00;;;22.00
11321;BMP180;5715;48.234;14.320;2023-02-21T14:17:01;98614.00;;;22.00
11321;BMP180;5715;48.234;14.320;2023-02-21T14:19:50;98620.00;;;22.30
11321;BMP180;5715;48.234;14.320;2023-02-21T14:22:43;98618.00;;;22.30
11321;BMP180;5715;48.234;14.320;2023-02-21T14:25:33;98625.00;;;22.60
11321;BMP180;5715;48.234;14.320;2023-02-21T14:37:41;98613.00;;;22.50
11321;BMP180;5715;48.234;14.320;2023-02-21T14:40:39;98611.00;;;22.30
11321;BMP180;5715;48.234;14.320;2023-02-21T14:47:12;98611.00;;;23.00
11321;BMP180;5715;48.234;14.320;2023-02-21T15:06:11;98603.00;;;22.40
11321;BMP180;5715;48.234;14.320;2023-02-21T15:09:18;98601.00;;;22.50
11321;BMP180;5715;48.234;14.320;2023-02-21T15:12:13;98606.00;;;22.30
11321;BMP180;5715;48.234;14.320;2023-02-21T15:15:02;98595.00;;;21.80
11321;BMP180;5715;48.234;14.320;2023-02-21T15:18:09;98600.00;;;21.60
11321;BMP180;5715;48.234;14.320;2023-02-21T15:21:19;98595.00;;;22.10
11321;BMP180;5715;48.234;14.320;2023-02-21T15:24:15;98593.00;;;22.30
11321;BMP180;5715;48.234;14.320;2023-02-21T15:27:13;98594.00;;;22.20
11321;BMP180;5715;48.234;14.320;2023-02-21T15:30:07;98596.00;;;22.10
11321;BMP180;5715;48.234;14.320;2023-02-21T15:33:18;98588.00;;;22.00
11321;BMP180;5715;48.234;14.320;2023-02-21T15:36:20;98598.00;;;21.80
11321;BMP180;5715;48.234;14.320;2023-02-21T15:39:29;98593.00;;;22.10
11321;BMP180;5715;48.234;14.320;2023-02-21T15:42:18;98591.00;;;22.10
11321;BMP180;5715;48.234;14.320;2023-02-21T15:45:15;98583.00;;;21.80
11321;BMP180;5715;48.234;14.320;2023-02-21T15:48:04;98578.00;;;21.70
11321;BMP180;5715;48.234;14.320;2023-02-21T15:50:52;98580.00;;;21.90
11321;BMP180;5715;48.234;14.320;2023-02-21T15:53:40;98577.00;;;21.60
11321;BMP180;5715;48.234;14.320;2023-02-21T15:56:27;98579.00;;;21.50
11321;BMP180;5715;48.234;14.320;2023-02-21T15:59:24;98569.00;;;21.80
11321;BMP180;5715;48.234;14.320;2023-02-21T16:02:14;98571.00;;;21.70
11321;BMP180;5715;48.234;14.320;2023-02-21T16:05:02;98572.00;;;21.70
11321;BMP180;5715;48.234;14.320;2023-02-21T16:07:52;98573.00;;;21.60
11321;BMP180;5715;48.234;14.320;2023-02-21T16:10:43;98571.00;;;21.30
11321;BMP180;5715;48.234;14.320;2023-02-21T16:13:39;98560.00;;;21.30
11321;BMP180;5715;48.234;14.320;2023-02-21T16:16:33;98566.00;;;21.10
11321;BMP180;5715;48.234;14.320;2023-02-21T16:19:22;98558.00;;;21.10
11321;BMP180;5715;48.234;14.320;2023-02-21T16:22:36;98565.00;;;20.90
11321;BMP180;5715;48.234;14.320;2023-02-21T16:28:56;98568.00;;;20.60
11321;BMP180;5715;48.234;14.320;2023-02-21T16:31:45;98559.00;;;20.60
11321;BMP180;5715;48.234;14.320;2023-02-21T16:34:35;98566.00;;;20.40
11321;BMP180;5715;48.234;14.320;2023-02-21T16:37:23;98561.00;;;20.10
11321;BMP180;5715;48.234;14.320;2023-02-21T16:40:20;98561.00;;;19.80
11321;BMP180;5715;48.234;14.320;2023-02-21T16:43:22;98565.00;;;19.90
11321;BMP180;5715;48.234;14.320;2023-02-21T16:46:12;98558.00;;;19.70
11321;BMP180;5715;48.234;14.320;2023-02-21T16:49:00;98556.00;;;19.60
11321;BMP180;5715;48.234;14.320;2023-02-21T16:51:47;98568.00;;;19.70
11321;BMP180;5715;48.234;14.320;2023-02-21T16:54:35;98565.00;;;19.50
11321;BMP180;5715;48.234;14.320;2023-02-21T16:57:23;98566.00;;;19.40
11321;BMP180;5715;48.234;14.320;2023-02-21T17:00:11;98570.00;;;19.30
11321;BMP180;5715;48.234;14.320;2023-02-21T17:02:59;98571.00;;;19.20
11321;BMP180;5715;48.234;14.320;2023-02-21T17:05:51;98577.00;;;19.00
11321;BMP180;5715;48.234;14.320;2023-02-21T17:08:39;98586.00;;;18.80
11321;BMP180;5715;48.234;14.320;2023-02-21T17:11:26;98593.00;;;18.60
11321;BMP180;5715;48.234;14.320;2023-02-21T17:14:14;98586.00;;;18.50
11321;BMP180;5715;48.234;14.320;2023-02-21T17:17:02;98591.00;;;18.30
11321;BMP180;5715;48.234;14.320;2023-02-21T17:19:49;98583.00;;;18.20
11321;BMP180;5715;48.234;14.320;2023-02-21T17:22:37;98581.00;;;18.20
11321;BMP180;5715;48.234;14.320;2023-02-21T17:25:25;98586.00;;;18.10
11321;BMP180;5715;48.234;14.320;2023-02-21T17:28:13;98589.00;;;17.90
11321;BMP180;5715;48.234;14.320;2023-02-21T17:31:00;98586.00;;;17.80
11321;BMP180;5715;48.234;14.320;2023-02-21T17:33:48;98584.00;;;17.60
11321;BMP180;5715;48.234;14.320;2023-02-21T17:36:35;98587.00;;;17.50
11321;BMP180;5715;48.234;14.320;2023-02-21T17:39:23;98584.00;;;17.30
11321;BMP180;5715;48.234;14.320;2023-02-21T17:42:11;98587.00;;;17.20
11321;BMP180;5715;48.234;14.320;2023-02-21T17:44:58;98584.00;;;17.20
11321;BMP180;5715;48.234;14.320;2023-02-21T17:47:49;98587.00;;;17.20
11321;BMP180;5715;48.234;14.320;2023-02-21T17:50:37;98582.00;;;17.30
11321;BMP180;5715;48.234;14.320;2023-02-21T17:53:25;98583.00;;;17.30
11321;BMP180;5715;48.234;14.320;2023-02-21T17:56:21;98591.00;;;17.20
11321;BMP180;5715;48.234;14.320;2023-02-21T17:59:10;98587.00;;;17.20
11321;BMP180;5715;48.234;14.320;2023-02-21T18:01:58;98591.00;;;17.10
11321;BMP180;5715;48.234;14.320;2023-02-21T18:04:49;98585.00;;;17.00
11321;BMP180;5715;48.234;14.320;2023-02-21T18:07:37;98594.00;;;16.90
11321;BMP180;5715;48.234;14.320;2023-02-21T18:10:26;98584.00;;;16.80
11321;BMP180;5715;48.234;14.320;2023-02-21T18:13:21;98586.00;;;16.70
11321;BMP180;5715;48.234;14.320;2023-02-21T18:16:09;98592.00;;;16.50
11321;BMP180;5715;48.234;14.320;2023-02-21T18:18:57;98591.00;;;16.60
11321;BMP180;5715;48.234;14.320;2023-02-21T18:21:44;98592.00;;;16.50
11321;BMP180;5715;48.234;14.320;2023-02-21T18:24:32;98593.00;;;16.40
11321;BMP180;5715;48.234;14.320;2023-02-21T18:27:20;98586.00;;;16.30
11321;BMP180;5715;48.234;14.320;2023-02-21T18:30:08;98590.00;;;16.20
11321;BMP180;5715;48.234;14.320;2023-02-21T18:32:56;98596.00;;;16.20
11321;BMP180;5715;48.234;14.320;2023-02-21T18:35:44;98586.00;;;16.00
11321;BMP180;5715;48.234;14.320;2023-02-21T18:38:31;98587.00;;;16.00
11321;BMP180;5715;48.234;14.320;2023-02-21T18:41:21;98580.00;;;15.90
11321;BMP180;5715;48.234;14.320;2023-02-21T18:44:12;98581.00;;;15.90
11321;BMP180;5715;48.234;14.320;2023-02-21T18:46:59;98585.00;;;15.80
11321;BMP180;5715;48.234;14.320;2023-02-21T18:49:48;98585.00;;;15.80
11321;BMP180;5715;48.234;14.320;2023-02-21T18:52:36;98587.00;;;15.60
11321;BMP180;5715;48.234;14.320;2023-02-21T18:55:24;98587.00;;;15.60
11321;BMP180;5715;48.234;14.320;2023-02-21T18:58:12;98585.00;;;15.50
11321;BMP180;5715;48.234;14.320;2023-02-21T19:00:59;98588.00;;;15.50
11321;BMP180;5715;48.234;14.320;2023-02-21T19:03:52;98588.00;;;15.50
11321;BMP180;5715;48.234;14.320;2023-02-21T19:06:40;98594.00;;;15.40